Terminal Aerodrome Forecast
Issued by NWS

Home | Current Version | Previous Version | Text Only | Print | Product List | Glossary Off
Versions: 1 2 3 4 5 6 7 8 9 10 11 12 13

495
FTUS45 KGGW 081720
TAFSDY
TAF
KSDY 081720Z 0818/0918 30010KT P6SM BKN090
     FM090000 29005KT P6SM BKN080
     FM091200 31006KT P6SM VCSH OVC030
     FM091500 31005KT P6SM VCSH OVC015
      AMD LTD TO CLD VIS AND WIND=

USA.gov is the U.S. government's official web portal to all federal, state and local government web resources and services.